createdAt,value
2022-12-10T00:00:02.520Z,1003.4
2022-12-10T00:01:02.439Z,1003.4
2022-12-10T00:02:02.485Z,1003.4
2022-12-10T00:03:02.600Z,1003.4
2022-12-10T00:04:02.392Z,1003.4
2022-12-10T00:05:02.569Z,1003.5
2022-12-10T00:06:02.305Z,1003.5
2022-12-10T00:07:02.233Z,1003.5
2022-12-10T00:08:02.307Z,1003.5
2022-12-10T00:09:02.081Z,1003.4
2022-12-10T00:10:10.973Z,1003.5
2022-12-10T00:11:01.875Z,1003.5
2022-12-10T00:12:01.808Z,1003.5
2022-12-10T00:13:01.766Z,1003.4
2022-12-10T00:14:01.683Z,1003.5
2022-12-10T00:15:02.650Z,1003.5
2022-12-10T00:16:02.757Z,1003.5
2022-12-10T00:17:02.378Z,1003.5
2022-12-10T00:18:02.263Z,1003.5
2022-12-10T00:19:02.168Z,1003.6
2022-12-10T00:20:02.115Z,1003.5
2022-12-10T00:21:02.093Z,1003.5
2022-12-10T00:22:02.001Z,1003.5
2022-12-10T00:23:01.958Z,1003.5
2022-12-10T00:24:01.852Z,1003.5
2022-12-10T00:25:01.733Z,1003.5
2022-12-10T00:26:01.690Z,1003.5
2022-12-10T00:27:02.683Z,1003.5
2022-12-10T00:28:02.661Z,1003.4
2022-12-10T00:29:02.530Z,1003.4
2022-12-10T00:30:02.463Z,1003.4
2022-12-10T00:31:02.504Z,1003.4
2022-12-10T00:32:02.267Z,1003.4
2022-12-10T00:33:02.131Z,1003.5
2022-12-10T00:34:01.981Z,1003.5
2022-12-10T00:35:01.923Z,1003.5
2022-12-10T00:36:01.831Z,1003.6
2022-12-10T00:37:01.769Z,1003.5
2022-12-10T00:38:01.672Z,1003.5
2022-12-10T00:39:02.618Z,1003.6
2022-12-10T00:40:02.554Z,1003.5
2022-12-10T00:41:02.497Z,1003.5
2022-12-10T00:42:02.481Z,1003.5
2022-12-10T00:43:02.386Z,1003.5
2022-12-10T00:44:02.336Z,1003.5
2022-12-10T00:45:02.295Z,1003.6
2022-12-10T00:46:02.205Z,1003.5
2022-12-10T00:47:02.249Z,1003.5
2022-12-10T00:48:02.235Z,1003.5
2022-12-10T00:49:01.963Z,1003.5
2022-12-10T00:50:01.900Z,1003.5
2022-12-10T00:51:01.757Z,1003.4
2022-12-10T00:52:01.715Z,1003.5
2022-12-10T00:53:02.692Z,1003.5
2022-12-10T00:54:02.580Z,1003.5
2022-12-10T00:55:02.539Z,1003.6
2022-12-10T00:56:02.490Z,1003.5
2022-12-10T00:57:02.408Z,1003.5
2022-12-10T00:58:02.339Z,1003.5
2022-12-10T00:59:02.280Z,1003.5
2022-12-10T01:00:02.156Z,1003.5
2022-12-10T01:01:02.263Z,1003.5
2022-12-10T01:02:02.157Z,1003.5
2022-12-10T01:03:01.826Z,1003.5
2022-12-10T01:04:01.875Z,1003.5
2022-12-10T01:05:01.719Z,1003.6
2022-12-10T01:06:02.547Z,1003.6
2022-12-10T01:07:11.564Z,1003.6
2022-12-10T01:08:02.452Z,1003.5
2022-12-10T01:09:02.249Z,1003.6
2022-12-10T01:10:02.152Z,1003.6
2022-12-10T01:11:02.092Z,1003.6
2022-12-10T01:12:02.032Z,1003.6
2022-12-10T01:13:01.905Z,1003.7
2022-12-10T01:14:01.825Z,1003.6
2022-12-10T01:15:01.754Z,1003.6
2022-12-10T01:16:01.874Z,1003.6
2022-12-10T01:17:01.717Z,1003.6
2022-12-10T01:18:02.641Z,1003.7
2022-12-10T01:19:02.599Z,1003.6
2022-12-10T01:20:02.502Z,1003.7
2022-12-10T01:21:02.447Z,1003.7
2022-12-10T01:22:02.393Z,1003.6
2022-12-10T01:23:02.338Z,1003.7
2022-12-10T01:24:02.285Z,1003.7
2022-12-10T01:25:02.223Z,1003.6
2022-12-10T01:26:02.149Z,1003.7
2022-12-10T01:27:02.098Z,1003.7
2022-12-10T01:28:02.044Z,1003.6
2022-12-10T01:29:01.985Z,1003.7
2022-12-10T01:30:01.911Z,1003.7
2022-12-10T01:31:01.790Z,1003.6
2022-12-10T01:32:02.036Z,1003.7
2022-12-10T01:33:01.731Z,1003.6
2022-12-10T01:34:01.675Z,1003.7
2022-12-10T01:35:02.678Z,1003.7
2022-12-10T01:36:02.561Z,1003.7
2022-12-10T01:37:02.536Z,1003.7
2022-12-10T01:38:02.464Z,1003.7
2022-12-10T01:39:02.405Z,1003.7
2022-12-10T01:40:02.382Z,1003.8
2022-12-10T01:41:02.288Z,1003.8
2022-12-10T01:42:02.242Z,1003.8
2022-12-10T01:43:02.155Z,1003.8
2022-12-10T01:44:02.113Z,1003.8
2022-12-10T01:45:02.049Z,1003.8
2022-12-10T01:46:02.078Z,1003.9
2022-12-10T01:47:02.127Z,1003.8
2022-12-10T01:48:08.609Z,1003.9
2022-12-10T01:49:02.362Z,1003.9
2022-12-10T01:50:02.267Z,1003.8
2022-12-10T01:51:02.309Z,1003.8
2022-12-10T01:52:02.201Z,1003.8
2022-12-10T01:53:02.182Z,1003.8
2022-12-10T01:54:02.123Z,1003.8
2022-12-10T01:55:02.095Z,1003.8
2022-12-10T01:56:02.009Z,1003.8
2022-12-10T01:57:01.945Z,1003.8
2022-12-10T01:58:01.807Z,1003.8
2022-12-10T01:59:01.729Z,1003.8
2022-12-10T02:00:01.718Z,1003.8
2022-12-10T02:01:04.785Z,1003.8
2022-12-10T02:02:01.848Z,1003.8
2022-12-10T02:03:02.743Z,1003.9
2022-12-10T02:04:02.614Z,1003.8
2022-12-10T02:05:02.661Z,1003.8
2022-12-10T02:06:02.482Z,1003.8
2022-12-10T02:07:02.524Z,1003.8
2022-12-10T02:08:02.776Z,1003.8
2022-12-10T02:09:02.576Z,1003.7
2022-12-10T02:10:02.564Z,1003.7
2022-12-10T02:11:02.382Z,1003.7
2022-12-10T02:12:02.364Z,1003.7
2022-12-10T02:13:02.371Z,1003.7
2022-12-10T02:14:02.166Z,1003.7
2022-12-10T02:15:02.196Z,1003.7
2022-12-10T02:16:02.383Z,1003.7
2022-12-10T02:17:02.205Z,1003.8
2022-12-10T02:18:02.234Z,1003.8
2022-12-10T02:19:02.068Z,1003.9
2022-12-10T02:20:02.114Z,1003.9
2022-12-10T02:21:01.964Z,1004
2022-12-10T02:22:02.004Z,1003.9
2022-12-10T02:23:01.813Z,1004
2022-12-10T02:24:01.956Z,1004.1
2022-12-10T02:25:01.703Z,1004
2022-12-10T02:26:02.690Z,1004.1
2022-12-10T02:27:02.548Z,1004.1
2022-12-10T02:28:02.581Z,1004.1
2022-12-10T02:29:02.418Z,1004.1
2022-12-10T02:30:02.462Z,1004.1
2022-12-10T02:31:02.419Z,1004.1
2022-12-10T02:32:02.456Z,1004.1
2022-12-10T02:33:02.326Z,1004.1
2022-12-10T02:34:02.107Z,1004.1
2022-12-10T02:35:08.566Z,1004.2
2022-12-10T02:36:02.400Z,1004.1
2022-12-10T02:37:02.156Z,1004.1
2022-12-10T02:38:02.261Z,1004.1
2022-12-10T02:39:02.084Z,1004.1
2022-12-10T02:40:02.129Z,1004.1
2022-12-10T02:41:01.959Z,1004.1
2022-12-10T02:42:01.991Z,1004
2022-12-10T02:43:01.771Z,1004
2022-12-10T02:44:01.832Z,1004.1
2022-12-10T02:45:01.687Z,1004
2022-12-10T02:46:01.932Z,1004
2022-12-10T02:47:02.052Z,1004
2022-12-10T02:48:02.095Z,1004
2022-12-10T02:49:01.924Z,1004
2022-12-10T02:50:01.906Z,1003.9
2022-12-10T02:51:01.749Z,1003.9
2022-12-10T02:52:01.796Z,1003.9
2022-12-10T02:53:02.752Z,1003.9
2022-12-10T02:54:02.611Z,1003.9
2022-12-10T02:55:02.644Z,1004
2022-12-10T02:56:02.502Z,1004
2022-12-10T02:57:02.560Z,1004
2022-12-10T02:58:02.404Z,1004.1
2022-12-10T02:59:02.464Z,1004.1
2022-12-10T03:00:02.391Z,1004
2022-12-10T03:01:02.426Z,1004
2022-12-10T03:02:02.409Z,1004.1
2022-12-10T03:03:02.575Z,1004
2022-12-10T03:04:02.426Z,1004
2022-12-10T03:05:02.197Z,1004
2022-12-10T03:06:02.295Z,1004
2022-12-10T03:07:02.105Z,1004
2022-12-10T03:08:02.380Z,1004
2022-12-10T03:09:02.121Z,1004
2022-12-10T03:10:02.128Z,1004.1
2022-12-10T03:11:01.974Z,1004
2022-12-10T03:12:02.023Z,1004
2022-12-10T03:13:01.843Z,1004
2022-12-10T03:14:01.840Z,1003.9
2022-12-10T03:15:01.644Z,1004
2022-12-10T03:16:02.711Z,1004
2022-12-10T03:17:02.722Z,1004
2022-12-10T03:18:02.577Z,1004.1
2022-12-10T03:19:02.463Z,1004
2022-12-10T03:20:02.325Z,1004.1
2022-12-10T03:21:02.365Z,1004.1
2022-12-10T03:22:02.253Z,1004.2
2022-12-10T03:23:02.043Z,1004.1
2022-12-10T03:24:02.004Z,1004.1
2022-12-10T03:25:01.802Z,1004.1
2022-12-10T03:26:01.833Z,1004.1
2022-12-10T03:27:01.680Z,1004.1
2022-12-10T03:28:02.733Z,1004.1
2022-12-10T03:29:02.546Z,1004.1
2022-12-10T03:30:02.583Z,1004.1
2022-12-10T03:31:02.578Z,1004.1
2022-12-10T03:32:02.663Z,1004.1
2022-12-10T03:33:02.687Z,1004.1
2022-12-10T03:34:02.509Z,1004.2
2022-12-10T03:35:02.539Z,1004.2
2022-12-10T03:36:02.409Z,1004.3
2022-12-10T03:37:02.500Z,1004.2
2022-12-10T03:38:02.374Z,1004.3
2022-12-10T03:39:02.142Z,1004.3
2022-12-10T03:40:02.177Z,1004.2
2022-12-10T03:41:01.998Z,1004.3
2022-12-10T03:42:02.046Z,1004.3
2022-12-10T03:43:01.815Z,1004.3
2022-12-10T03:44:01.867Z,1004.3
2022-12-10T03:45:01.779Z,1004.3
2022-12-10T03:46:01.904Z,1004.4
2022-12-10T03:47:01.774Z,1004.4
2022-12-10T03:48:01.818Z,1004.5
2022-12-10T03:49:02.754Z,1004.4
2022-12-10T03:50:02.588Z,1004.4
2022-12-10T03:51:02.659Z,1004.5
2022-12-10T03:52:02.498Z,1004.4
2022-12-10T03:53:02.487Z,1004.4
2022-12-10T03:54:02.473Z,1004.5
2022-12-10T03:55:02.286Z,1004.4
2022-12-10T03:56:02.378Z,1004.4
2022-12-10T03:57:02.465Z,1004.6
2022-12-10T03:58:02.176Z,1004.5
2022-12-10T03:59:02.227Z,1004.5
2022-12-10T04:00:02.046Z,1004.6
2022-12-10T04:01:02.297Z,1004.5
2022-12-10T04:02:01.797Z,1004.6
2022-12-10T04:03:01.832Z,1004.5
2022-12-10T04:04:01.819Z,1004.5
2022-12-10T04:05:02.728Z,1004.5
2022-12-10T04:06:02.591Z,1004.5
2022-12-10T04:07:02.625Z,1004.4
2022-12-10T04:08:02.714Z,1004.4
2022-12-10T04:09:02.546Z,1004.3
2022-12-10T04:10:02.422Z,1004.3
2022-12-10T04:11:02.550Z,1004.3
2022-12-10T04:12:02.356Z,1004.3
2022-12-10T04:13:02.213Z,1004.4
2022-12-10T04:14:02.224Z,1004.5
2022-12-10T04:15:02.059Z,1004.5
2022-12-10T04:16:02.065Z,1004.5
2022-12-10T04:17:02.056Z,1004.6
2022-12-10T04:18:01.882Z,1004.6
2022-12-10T04:19:02.120Z,1004.6
2022-12-10T04:20:01.988Z,1004.6
2022-12-10T04:21:01.794Z,1004.6
2022-12-10T04:22:01.825Z,1004.6
2022-12-10T04:23:02.754Z,1004.6
2022-12-10T04:24:02.628Z,1004.6
2022-12-10T04:25:02.676Z,1004.6
2022-12-10T04:26:02.507Z,1004.7
2022-12-10T04:27:02.487Z,1004.7
2022-12-10T04:28:02.472Z,1004.6
2022-12-10T04:29:02.297Z,1004.7
2022-12-10T04:30:02.326Z,1004.6
2022-12-10T04:31:02.528Z,1004.7
2022-12-10T04:32:02.233Z,1004.7
2022-12-10T04:33:02.269Z,1004.8
2022-12-10T04:34:02.114Z,1004.8
2022-12-10T04:35:02.120Z,1004.8
2022-12-10T04:36:01.891Z,1004.8
2022-12-10T04:37:01.912Z,1004.8
2022-12-10T04:38:01.668Z,1004.8
2022-12-10T04:39:02.742Z,1004.8
2022-12-10T04:40:02.605Z,1004.8
2022-12-10T04:41:02.651Z,1004.7
2022-12-10T04:42:02.587Z,1004.7
2022-12-10T04:43:02.451Z,1004.8
2022-12-10T04:44:02.464Z,1004.8
2022-12-10T04:45:02.304Z,1004.8
2022-12-10T04:46:02.523Z,1004.8
2022-12-10T04:47:02.272Z,1004.9
2022-12-10T04:48:02.230Z,1004.8
2022-12-10T04:49:02.089Z,1004.9
2022-12-10T04:50:01.969Z,1004.9
2022-12-10T04:51:01.990Z,1004.9
2022-12-10T04:52:01.760Z,1004.9
2022-12-10T04:53:01.796Z,1004.9
2022-12-10T04:54:02.719Z,1004.9
2022-12-10T04:55:02.554Z,1004.9
2022-12-10T04:56:02.633Z,1004.9
2022-12-10T04:57:02.465Z,1004.9
2022-12-10T04:58:02.479Z,1005
2022-12-10T04:59:02.417Z,1004.9
2022-12-10T05:00:02.292Z,1005
2022-12-10T05:01:02.348Z,1004.9
2022-12-10T05:02:02.307Z,1005
2022-12-10T05:03:02.064Z,1005
2022-12-10T05:04:02.304Z,1005
2022-12-10T05:05:01.981Z,1005.1
2022-12-10T05:06:02.036Z,1005.1
2022-12-10T05:07:01.802Z,1005.1
2022-12-10T05:08:01.962Z,1005.1
2022-12-10T05:09:01.704Z,1005
2022-12-10T05:10:02.747Z,1005
2022-12-10T05:11:02.608Z,1005.1
2022-12-10T05:12:02.767Z,1005
2022-12-10T05:13:02.477Z,1005
2022-12-10T05:14:02.548Z,1005.1
2022-12-10T05:15:02.438Z,1005
2022-12-10T05:16:02.561Z,1005.1
2022-12-10T05:17:02.283Z,1005.1
2022-12-10T05:18:02.111Z,1005.1
2022-12-10T05:19:02.286Z,1005.1
2022-12-10T05:20:02.020Z,1005.2
2022-12-10T05:21:01.968Z,1005.2
2022-12-10T05:22:01.803Z,1005.2
2022-12-10T05:23:01.810Z,1005.1
2022-12-10T05:24:02.876Z,1005.2
2022-12-10T05:25:02.629Z,1005.2
2022-12-10T05:26:02.721Z,1005.2
2022-12-10T05:27:02.656Z,1005.3
2022-12-10T05:28:02.526Z,1005.2
2022-12-10T05:29:02.454Z,1005.3
2022-12-10T05:30:02.511Z,1005.2
2022-12-10T05:31:02.518Z,1005.2
2022-12-10T05:32:02.227Z,1005.2
2022-12-10T05:33:02.267Z,1005.2
2022-12-10T05:34:02.086Z,1005.2
2022-12-10T05:35:02.100Z,1005.2
2022-12-10T05:36:01.896Z,1005.1
2022-12-10T05:37:01.948Z,1005.2
2022-12-10T05:38:01.754Z,1005.2
2022-12-10T05:39:01.811Z,1005.2
2022-12-10T05:40:02.705Z,1005.1
2022-12-10T05:41:02.565Z,1005.1
2022-12-10T05:42:02.607Z,1005.2
2022-12-10T05:43:02.433Z,1005.2
2022-12-10T05:44:02.500Z,1005.2
2022-12-10T05:45:02.377Z,1005.2
2022-12-10T05:46:02.301Z,1005.2
2022-12-10T05:47:02.154Z,1005
2022-12-10T05:48:02.140Z,1005
2022-12-10T05:49:01.977Z,1005
2022-12-10T05:50:01.900Z,1005
2022-12-10T05:51:01.748Z,1004.9
2022-12-10T05:52:01.791Z,1005
2022-12-10T05:53:02.718Z,1005
2022-12-10T05:54:02.590Z,1005
2022-12-10T05:55:02.605Z,1005
2022-12-10T05:56:02.432Z,1005
2022-12-10T05:57:02.451Z,1005.1
2022-12-10T05:58:02.408Z,1005.1
2022-12-10T05:59:02.298Z,1005.1
2022-12-10T06:00:02.438Z,1005.1
2022-12-10T06:01:02.393Z,1005
2022-12-10T06:02:02.204Z,1005
2022-12-10T06:03:02.546Z,1005
2022-12-10T06:04:02.401Z,1005
2022-12-10T06:05:02.468Z,1004.9
2022-12-10T06:06:02.376Z,1004.9
2022-12-10T06:07:11.556Z,1004.9
2022-12-10T06:08:02.502Z,1004.9
2022-12-10T06:09:02.311Z,1004.9
2022-12-10T06:10:02.312Z,1004.8
2022-12-10T06:11:02.105Z,1004.8
2022-12-10T06:12:02.154Z,1004.8
2022-12-10T06:13:01.990Z,1004.7
2022-12-10T06:14:01.958Z,1004.8
2022-12-10T06:15:01.783Z,1004.7
2022-12-10T06:16:01.913Z,1004.8
2022-12-10T06:17:02.525Z,1004.8
2022-12-10T06:18:02.377Z,1004.8
2022-12-10T06:19:02.414Z,1004.9
2022-12-10T06:20:02.354Z,1004.9
2022-12-10T06:21:02.174Z,1005
2022-12-10T06:22:02.265Z,1005
2022-12-10T06:23:02.029Z,1005.1
2022-12-10T06:24:02.022Z,1005.1
2022-12-10T06:25:01.869Z,1005.2
2022-12-10T06:26:01.857Z,1005.2
2022-12-10T06:27:01.671Z,1005.2
2022-12-10T06:28:02.740Z,1005.2
2022-12-10T06:29:02.549Z,1005.3
2022-12-10T06:30:02.625Z,1005.3
2022-12-10T06:31:02.659Z,1005.3
2022-12-10T06:32:02.528Z,1005.4
2022-12-10T06:33:02.588Z,1005.4
2022-12-10T06:34:02.462Z,1005.4
2022-12-10T06:35:02.429Z,1005.4
2022-12-10T06:36:02.339Z,1005.4
2022-12-10T06:37:02.211Z,1005.4
2022-12-10T06:38:02.257Z,1005.4
2022-12-10T06:39:02.116Z,1005.5
2022-12-10T06:40:02.131Z,1005.5
2022-12-10T06:41:01.903Z,1005.5
2022-12-10T06:42:01.910Z,1005.6
2022-12-10T06:43:01.694Z,1005.6
2022-12-10T06:44:02.715Z,1005.6
2022-12-10T06:45:02.879Z,1005.6
2022-12-10T06:46:02.645Z,1005.7
2022-12-10T06:47:02.324Z,1005.7
2022-12-10T06:48:02.371Z,1005.7
2022-12-10T06:49:02.309Z,1005.7
2022-12-10T06:50:02.169Z,1005.7
2022-12-10T06:51:02.204Z,1005.7
2022-12-10T06:52:02.027Z,1005.7
2022-12-10T06:53:01.949Z,1005.7
2022-12-10T06:54:01.789Z,1005.7
2022-12-10T06:55:01.834Z,1005.8
2022-12-10T06:56:02.774Z,1005.7
2022-12-10T06:57:02.586Z,1005.8
2022-12-10T06:58:02.623Z,1005.8
2022-12-10T06:59:02.520Z,1005.9
2022-12-10T07:00:02.465Z,1005.8
2022-12-10T07:01:02.420Z,1005.9
2022-12-10T07:02:02.429Z,1005.9
2022-12-10T07:03:02.293Z,1005.8
2022-12-10T07:04:02.068Z,1005.8
2022-12-10T07:05:02.117Z,1005.8
2022-12-10T07:06:01.927Z,1005.9
2022-12-10T07:07:10.140Z,1005.8
2022-12-10T07:08:02.039Z,1005.8
2022-12-10T07:09:01.868Z,1005.9
2022-12-10T07:10:01.712Z,1005.9
2022-12-10T07:11:02.673Z,1005.9
2022-12-10T07:12:02.578Z,1005.9
2022-12-10T07:13:02.609Z,1005.9
2022-12-10T07:14:02.116Z,1005.8
2022-12-10T07:15:02.183Z,1005.7
2022-12-10T07:16:02.287Z,1005.7
2022-12-10T07:17:01.879Z,1005.7
2022-12-10T07:18:01.876Z,1005.7
2022-12-10T07:19:01.710Z,1005.7
2022-12-10T07:20:01.849Z,1005.7
2022-12-10T07:21:01.705Z,1005.8
2022-12-10T07:22:02.743Z,1005.7
2022-12-10T07:23:02.613Z,1005.7
2022-12-10T07:24:02.626Z,1005.7
2022-12-10T07:25:02.475Z,1005.8
2022-12-10T07:26:02.518Z,1005.8
2022-12-10T07:27:02.455Z,1005.8
2022-12-10T07:28:02.250Z,1005.8
2022-12-10T07:29:02.258Z,1005.8
2022-12-10T07:30:02.026Z,1005.8
2022-12-10T07:31:02.158Z,1005.8
2022-12-10T07:32:01.895Z,1005.8
2022-12-10T07:33:01.922Z,1005.8
2022-12-10T07:34:01.755Z,1005.9
2022-12-10T07:35:01.807Z,1005.9
2022-12-10T07:36:02.742Z,1005.9
2022-12-10T07:37:02.575Z,1005.9
2022-12-10T07:38:02.639Z,1005.9
2022-12-10T07:39:02.469Z,1006
2022-12-10T07:40:02.572Z,1006
2022-12-10T07:41:02.405Z,1006
2022-12-10T07:42:02.254Z,1006
2022-12-10T07:43:02.298Z,1006.1
2022-12-10T07:44:02.251Z,1006.1
2022-12-10T07:45:02.094Z,1006
2022-12-10T07:46:02.064Z,1006
2022-12-10T07:47:01.943Z,1006.1
2022-12-10T07:48:01.832Z,1006.1
2022-12-10T07:49:01.671Z,1006
2022-12-10T07:50:02.689Z,1006.1
2022-12-10T07:51:02.609Z,1006.1
2022-12-10T07:52:02.633Z,1006.1
2022-12-10T07:53:02.465Z,1006.2
2022-12-10T07:54:02.525Z,1006.2
2022-12-10T07:55:02.513Z,1006.2
2022-12-10T07:56:02.358Z,1006.3
2022-12-10T07:57:02.396Z,1006.2
2022-12-10T07:58:02.329Z,1006.2
2022-12-10T07:59:02.156Z,1006.2
2022-12-10T08:00:02.256Z,1006.2
2022-12-10T08:01:02.110Z,1006.3
2022-12-10T08:02:09.395Z,1006.2
2022-12-10T08:03:02.342Z,1006.2
2022-12-10T08:04:02.199Z,1006.2
2022-12-10T08:05:02.023Z,1006.2
2022-12-10T08:06:02.061Z,1006.1
2022-12-10T08:07:01.890Z,1006.1
2022-12-10T08:08:08.548Z,1006.1
2022-12-10T08:09:02.457Z,1006.1
2022-12-10T08:10:02.251Z,1006.1
2022-12-10T08:11:02.230Z,1006.1
2022-12-10T08:12:02.080Z,1006.1
2022-12-10T08:13:02.175Z,1006.1
2022-12-10T08:14:01.927Z,1006.1
2022-12-10T08:15:01.948Z,1006
2022-12-10T08:16:01.880Z,1006
2022-12-10T08:17:01.755Z,1006.1
2022-12-10T08:18:01.813Z,1006
2022-12-10T08:19:02.699Z,1006
2022-12-10T08:20:02.584Z,1006
2022-12-10T08:21:02.666Z,1006
2022-12-10T08:22:02.465Z,1006
2022-12-10T08:23:02.510Z,1006
2022-12-10T08:24:02.493Z,1005.9
2022-12-10T08:25:02.309Z,1006
2022-12-10T08:26:02.320Z,1006
2022-12-10T08:27:02.089Z,1006
2022-12-10T08:28:02.057Z,1006
2022-12-10T08:29:02.045Z,1006
2022-12-10T08:30:02.105Z,1006
2022-12-10T08:31:01.835Z,1005.9
2022-12-10T08:32:01.874Z,1006
2022-12-10T08:33:01.802Z,1005.9
2022-12-10T08:34:02.732Z,1005.9
2022-12-10T08:35:02.552Z,1006
2022-12-10T08:36:02.598Z,1006
2022-12-10T08:37:02.457Z,1006
2022-12-10T08:38:02.478Z,1006
2022-12-10T08:39:02.417Z,1006
2022-12-10T08:40:02.277Z,1006
2022-12-10T08:41:02.274Z,1006.1
2022-12-10T08:42:02.306Z,1006.1
2022-12-10T08:43:02.101Z,1006.1
2022-12-10T08:44:02.128Z,1006.1
2022-12-10T08:45:01.981Z,1006
2022-12-10T08:46:02.278Z,1006
2022-12-10T08:47:01.841Z,1006
2022-12-10T08:48:01.861Z,1006
2022-12-10T08:49:01.721Z,1006
2022-12-10T08:50:02.752Z,1006.1
2022-12-10T08:51:02.590Z,1006.1
2022-12-10T08:52:02.616Z,1006.1
2022-12-10T08:53:02.502Z,1006.2
2022-12-10T08:54:02.525Z,1006.2
2022-12-10T08:55:02.430Z,1006.1
2022-12-10T08:56:02.260Z,1006.1
2022-12-10T08:57:02.315Z,1006.1
2022-12-10T08:58:02.259Z,1006.1
2022-12-10T08:59:02.130Z,1006.1
2022-12-10T09:00:02.069Z,1006.1
2022-12-10T09:01:02.075Z,1006.1
2022-12-10T09:02:02.059Z,1006.1
2022-12-10T09:03:01.866Z,1006.1
2022-12-10T09:04:01.675Z,1006.1
2022-12-10T09:05:02.742Z,1006.1
2022-12-10T09:06:02.591Z,1006.1
2022-12-10T09:07:02.559Z,1006.2
2022-12-10T09:08:02.509Z,1006.2
2022-12-10T09:09:02.458Z,1006.2
2022-12-10T09:10:02.395Z,1006.3
2022-12-10T09:11:02.266Z,1006.2
2022-12-10T09:12:02.139Z,1006.2
2022-12-10T09:13:04.037Z,1006.2
2022-12-10T09:14:01.724Z,1006.2
2022-12-10T09:15:01.847Z,1006.2
2022-12-10T09:16:01.886Z,1006.1
2022-12-10T09:17:02.262Z,1006.1
2022-12-10T09:18:02.102Z,1006
2022-12-10T09:19:01.917Z,1006
2022-12-10T09:20:01.884Z,1006
2022-12-10T09:21:01.710Z,1006
2022-12-10T09:22:02.733Z,1006
2022-12-10T09:23:02.605Z,1005.9
2022-12-10T09:24:02.605Z,1006
2022-12-10T09:25:02.499Z,1006
2022-12-10T09:26:02.580Z,1005.9
2022-12-10T09:27:02.539Z,1006
2022-12-10T09:28:02.584Z,1005.9
2022-12-10T09:29:02.429Z,1005.9
2022-12-10T09:30:02.492Z,1005.9
2022-12-10T09:31:02.768Z,1005.9
2022-12-10T09:32:02.168Z,1005.9
2022-12-10T09:33:02.051Z,1006
2022-12-10T09:34:01.855Z,1005.9
2022-12-10T09:35:01.848Z,1006
2022-12-10T09:36:01.669Z,1006
2022-12-10T09:37:02.746Z,1005.9
2022-12-10T09:38:02.541Z,1005.9
2022-12-10T09:39:02.610Z,1005.9
2022-12-10T09:40:02.452Z,1005.9
2022-12-10T09:41:02.513Z,1005.9
2022-12-10T09:42:02.495Z,1005.9
2022-12-10T09:43:02.288Z,1005.9
2022-12-10T09:44:02.365Z,1006
2022-12-10T09:45:02.288Z,1005.9
2022-12-10T09:46:02.260Z,1005.9
2022-12-10T09:47:02.211Z,1005.9
2022-12-10T09:48:02.267Z,1005.9
2022-12-10T09:49:02.049Z,1005.9
2022-12-10T09:50:02.111Z,1005.9
2022-12-10T09:51:01.897Z,1005.8
2022-12-10T09:52:01.900Z,1005.8
2022-12-10T09:53:01.722Z,1005.9
2022-12-10T09:54:02.725Z,1005.9
2022-12-10T09:55:02.602Z,1005.9
2022-12-10T09:56:02.634Z,1005.8
2022-12-10T09:57:02.489Z,1005.9
2022-12-10T09:58:02.522Z,1005.9
2022-12-10T09:59:02.478Z,1005.8
2022-12-10T10:00:02.328Z,1005.8
2022-12-10T10:01:02.697Z,1005.8
2022-12-10T10:02:02.722Z,1005.8
2022-12-10T10:03:02.469Z,1005.8
2022-12-10T10:04:02.490Z,1005.8
2022-12-10T10:05:02.454Z,1005.8
2022-12-10T10:06:11.576Z,1005.8
2022-12-10T10:07:02.297Z,1005.9
2022-12-10T10:08:02.568Z,1005.9
2022-12-10T10:09:02.409Z,1005.9
2022-12-10T10:10:02.295Z,1005.8
2022-12-10T10:11:02.300Z,1005.8
2022-12-10T10:12:09.488Z,1005.9
2022-12-10T10:13:02.202Z,1005.8
2022-12-10T10:14:02.377Z,1005.8
2022-12-10T10:15:02.085Z,1005.9
2022-12-10T10:16:02.059Z,1005.9
2022-12-10T10:17:01.840Z,1005.9
2022-12-10T10:18:02.783Z,1005.9
2022-12-10T10:19:02.588Z,1005.9
2022-12-10T10:20:02.618Z,1005.9
2022-12-10T10:21:02.431Z,1005.9
2022-12-10T10:22:02.483Z,1005.9
2022-12-10T10:23:02.469Z,1005.9
2022-12-10T10:24:12.330Z,1006
2022-12-10T10:25:02.014Z,1006
2022-12-10T10:26:02.060Z,1005.9
2022-12-10T10:27:01.877Z,1006
2022-12-10T10:28:01.859Z,1006
2022-12-10T10:29:01.730Z,1005.9
2022-12-10T10:30:02.785Z,1006
2022-12-10T10:31:02.680Z,1005.9
2022-12-10T10:32:02.655Z,1005.9
2022-12-10T10:33:02.861Z,1005.9
2022-12-10T10:34:02.569Z,1005.8
2022-12-10T10:35:02.577Z,1005.8
2022-12-10T10:36:11.580Z,1005.7
2022-12-10T10:37:02.339Z,1005.8
2022-12-10T10:38:02.366Z,1005.8
2022-12-10T10:39:02.290Z,1005.8
2022-12-10T10:40:02.078Z,1005.9
2022-12-10T10:41:02.112Z,1006
2022-12-10T10:42:02.047Z,1006
2022-12-10T10:43:02.020Z,1006
2022-12-10T10:44:01.812Z,1006
2022-12-10T10:45:01.873Z,1006.1
2022-12-10T10:46:01.935Z,1006
2022-12-10T10:47:01.663Z,1006
2022-12-10T10:48:02.721Z,1006
2022-12-10T10:49:02.582Z,1006
2022-12-10T10:50:02.562Z,1006
2022-12-10T10:51:02.428Z,1006
2022-12-10T10:52:02.485Z,1006
2022-12-10T10:53:02.395Z,1006
2022-12-10T10:54:08.799Z,1006
2022-12-10T10:55:02.512Z,1006
2022-12-10T10:56:02.534Z,1006
2022-12-10T10:57:02.434Z,1006
2022-12-10T10:58:02.420Z,1005.9
2022-12-10T10:59:02.355Z,1005.9
2022-12-10T11:00:10.813Z,1005.8
2022-12-10T11:01:02.727Z,1005.8
2022-12-10T11:02:02.296Z,1005.7
2022-12-10T11:03:02.038Z,1005.7
2022-12-10T11:04:02.015Z,1005.7
2022-12-10T11:05:01.860Z,1005.8
2022-12-10T11:06:01.823Z,1005.8
2022-12-10T11:07:02.760Z,1005.8
2022-12-10T11:08:02.754Z,1005.8
2022-12-10T11:09:02.692Z,1005.8
2022-12-10T11:10:02.556Z,1005.8
2022-12-10T11:11:02.715Z,1005.8
2022-12-10T11:12:02.571Z,1005.9
2022-12-10T11:13:02.645Z,1005.9
2022-12-10T11:14:02.474Z,1005.9
2022-12-10T11:15:02.516Z,1005.9
2022-12-10T11:16:02.494Z,1005.9
2022-12-10T11:17:02.603Z,1005.9
2022-12-10T11:18:02.481Z,1005.9
2022-12-10T11:19:02.378Z,1005.8
2022-12-10T11:20:02.235Z,1005.8
2022-12-10T11:21:02.406Z,1005.8
2022-12-10T11:22:02.250Z,1005.8
2022-12-10T11:23:02.081Z,1005.8
2022-12-10T11:24:02.125Z,1005.8
2022-12-10T11:25:01.968Z,1005.9
2022-12-10T11:26:01.878Z,1005.9
2022-12-10T11:27:01.758Z,1005.9
2022-12-10T11:28:01.779Z,1005.9
2022-12-10T11:29:02.678Z,1005.9
2022-12-10T11:30:02.598Z,1005.9
2022-12-10T11:31:02.732Z,1005.9
2022-12-10T11:32:02.668Z,1005.8
2022-12-10T11:33:02.698Z,1005.8
2022-12-10T11:34:02.558Z,1005.8
2022-12-10T11:35:02.609Z,1005.8
2022-12-10T11:36:02.423Z,1005.9
2022-12-10T11:37:02.465Z,1005.9
2022-12-10T11:38:02.427Z,1005.8
2022-12-10T11:39:02.231Z,1005.8
2022-12-10T11:40:02.216Z,1005.8
2022-12-10T11:41:02.040Z,1005.8
2022-12-10T11:42:02.016Z,1005.8
2022-12-10T11:43:01.796Z,1005.8
2022-12-10T11:44:01.839Z,1005.8
2022-12-10T11:45:01.722Z,1005.8
2022-12-10T11:46:02.965Z,1005.8
2022-12-10T11:47:02.391Z,1005.9
2022-12-10T11:48:02.423Z,1005.9
2022-12-10T11:49:02.368Z,1005.9
2022-12-10T11:50:02.206Z,1005.9
2022-12-10T11:51:02.169Z,1005.8
2022-12-10T11:52:01.969Z,1005.8
2022-12-10T11:53:02.024Z,1005.7
2022-12-10T11:54:01.841Z,1005.8
2022-12-10T11:55:15.590Z,1005.8
2022-12-10T11:56:02.580Z,1005.7
2022-12-10T11:57:02.401Z,1005.7
2022-12-10T11:58:02.450Z,1005.7
2022-12-10T11:59:02.349Z,1005.7
2022-12-10T12:00:06.400Z,1005.7
2022-12-10T12:01:07.483Z,1005.7
2022-12-10T12:02:02.168Z,1005.7
2022-12-10T12:03:02.143Z,1005.7
2022-12-10T12:04:02.333Z,1005.7
2022-12-10T12:05:02.054Z,1005.8
2022-12-10T12:06:08.973Z,1005.8
2022-12-10T12:07:01.673Z,1005.9
2022-12-10T12:08:02.857Z,1005.9
2022-12-10T12:09:02.579Z,1005.9
2022-12-10T12:10:02.593Z,1005.9
2022-12-10T12:11:02.490Z,1006
2022-12-10T12:12:02.530Z,1006
2022-12-10T12:13:02.492Z,1005.9
2022-12-10T12:14:02.297Z,1006
2022-12-10T12:15:02.284Z,1005.9
2022-12-10T12:16:02.452Z,1005.9
2022-12-10T12:17:02.037Z,1005.8
2022-12-10T12:18:02.070Z,1005.8
2022-12-10T12:19:01.885Z,1005.8
2022-12-10T12:20:01.958Z,1005.8
2022-12-10T12:21:01.737Z,1005.8
2022-12-10T12:22:02.769Z,1005.9
2022-12-10T12:23:02.577Z,1005.9
2022-12-10T12:24:05.457Z,1005.8
2022-12-10T12:25:02.197Z,1005.8
2022-12-10T12:26:02.191Z,1005.8
2022-12-10T12:27:02.003Z,1005.8
2022-12-10T12:28:02.041Z,1005.7
2022-12-10T12:29:01.865Z,1005.8
2022-12-10T12:30:01.828Z,1005.7
2022-12-10T12:31:01.912Z,1005.7
2022-12-10T12:32:01.807Z,1005.7
2022-12-10T12:33:01.833Z,1005.7
2022-12-10T12:34:02.772Z,1005.7
2022-12-10T12:35:02.643Z,1005.7
2022-12-10T12:36:02.624Z,1005.7